Time;durP1;ratioP1;P1;durP2;ratioP2;P2;SDS_P1;SDS_P2;PMS_P1;PMS_P2;Temp;Humidity;BMP_temperature;BMP_pressure;BME280_temperature;BME280_humidity;BME280_pressure;Samples;Min_cycle;Max_cycle;Signal;HPM_P1;HPM_P2
2022/07/26 00:00:53;;;;;;;4.20;1.92;;;;;17.50;100958.00;;;;10450439;28;20533;-77
2022/07/26 00:05:55;;;;;;;5.57;2.20;;;;;17.40;100958.00;;;;10440837;28;20209;-78
2022/07/26 00:10:57;;;;;;;5.25;1.75;;;;;17.30;100961.00;;;;10447833;28;20323;-78
2022/07/26 00:16:01;;;;;;;9.50;2.40;;;;;17.30;100966.00;;;;10464338;28;20217;-78
2022/07/26 00:21:04;;;;;;;9.38;2.30;;;;;17.30;100964.00;;;;10447504;28;20201;-78
2022/07/26 00:26:07;;;;;;;12.43;2.67;;;;;17.20;100962.00;;;;10439996;28;20610;-79
2022/07/26 00:31:11;;;;;;;14.25;2.38;;;;;17.20;100963.00;;;;10454652;28;20201;-78
2022/07/26 00:36:13;;;;;;;8.80;2.50;;;;;17.10;100970.00;;;;10504524;28;20209;-78
2022/07/26 00:41:15;;;;;;;7.87;2.83;;;;;17.20;100969.00;;;;10489949;28;20185;-78
2022/07/26 00:46:17;;;;;;;12.38;2.85;;;;;17.30;100968.00;;;;10471943;28;20189;-78
2022/07/26 00:51:20;;;;;;;10.87;2.90;;;;;17.40;100966.00;;;;10464176;28;20225;-78
2022/07/26 00:56:22;;;;;;;8.83;2.80;;;;;17.50;100962.00;;;;10463725;28;20228;-78
2022/07/26 01:01:24;;;;;;;12.68;3.15;;;;;17.60;100967.00;;;;10485448;28;20212;-78
2022/07/26 01:06:26;;;;;;;14.80;2.90;;;;;17.70;100963.00;;;;10472500;28;20528;-78
2022/07/26 01:11:28;;;;;;;14.00;3.13;;;;;17.70;100962.00;;;;10479657;28;20193;-78
2022/07/26 01:16:31;;;;;;;12.27;2.95;;;;;17.80;100962.00;;;;10479588;28;20280;-78
2022/07/26 01:21:33;;;;;;;10.97;3.17;;;;;17.80;100974.00;;;;10430427;28;20189;-78
2022/07/26 01:26:35;;;;;;;11.93;2.90;;;;;17.90;100967.00;;;;10462770;28;20702;-78
2022/07/26 01:31:37;;;;;;;10.30;2.92;;;;;17.90;100966.00;;;;10437606;28;20391;-78
2022/07/26 01:36:39;;;;;;;10.52;3.13;;;;;17.90;100959.00;;;;10502055;28;20278;-79
2022/07/26 01:41:41;;;;;;;10.80;2.80;;;;;17.90;100958.00;;;;10451304;28;20576;-78
2022/07/26 01:46:43;;;;;;;10.80;3.05;;;;;17.90;100963.00;;;;10462400;28;20193;-78
2022/07/26 01:51:45;;;;;;;14.43;3.53;;;;;17.90;100965.00;;;;10462334;28;20232;-78
2022/07/26 01:56:47;;;;;;;11.35;3.35;;;;;17.90;100976.00;;;;10467486;28;20209;-78
2022/07/26 02:01:49;;;;;;;11.57;3.40;;;;;17.90;100975.00;;;;10538018;28;20207;-79
2022/07/26 02:06:51;;;;;;;16.27;3.75;;;;;17.80;100970.00;;;;10487133;28;20185;-78
2022/07/26 02:11:54;;;;;;;11.95;3.38;;;;;17.80;100973.00;;;;10469060;28;20189;-78
2022/07/26 02:16:58;;;;;;;12.13;2.90;;;;;17.80;100977.00;;;;10445287;28;20205;-78
2022/07/26 02:22:01;;;;;;;13.60;3.00;;;;;17.80;100978.00;;;;10478355;28;20212;-78
2022/07/26 02:27:04;;;;;;;11.95;3.20;;;;;17.80;100985.00;;;;10445129;28;20193;-78
2022/07/26 02:32:06;;;;;;;16.55;3.47;;;;;17.80;100985.00;;;;10472839;28;20200;-79
2022/07/26 02:37:08;;;;;;;9.55;3.47;;;;;17.80;100997.00;;;;10502989;28;20633;-78
2022/07/26 02:42:10;;;;;;;16.48;3.80;;;;;17.80;100996.00;;;;10472486;28;20288;-78
2022/07/26 02:47:12;;;;;;;16.58;3.78;;;;;17.80;100992.00;;;;10509640;28;20699;-79
2022/07/26 02:52:14;;;;;;;9.60;3.33;;;;;17.80;100997.00;;;;10510618;28;20250;-78
2022/07/26 02:57:16;;;;;;;11.27;3.35;;;;;17.70;101001.00;;;;10476850;28;20300;-78
2022/07/26 03:02:18;;;;;;;10.53;3.80;;;;;17.70;101002.00;;;;10450789;28;20259;-79
2022/07/26 03:07:20;;;;;;;10.15;4.25;;;;;17.70;101007.00;;;;10464634;28;20660;-78
2022/07/26 03:12:23;;;;;;;14.43;3.60;;;;;17.70;101005.00;;;;10467780;28;20235;-78
2022/07/26 03:17:25;;;;;;;19.58;3.70;;;;;17.70;101015.00;;;;10473703;28;20205;-78
2022/07/26 03:22:27;;;;;;;15.77;3.80;;;;;17.70;101010.00;;;;10492617;28;20197;-79
2022/07/26 03:27:29;;;;;;;14.05;3.65;;;;;17.70;101007.00;;;;10491485;28;20312;-78
2022/07/26 03:32:31;;;;;;;15.80;4.60;;;;;17.70;101013.00;;;;10477109;28;20739;-78
2022/07/26 03:37:33;;;;;;;12.50;4.00;;;;;17.70;101017.00;;;;10466349;28;20206;-78
2022/07/26 03:42:47;;;;;;;10.88;4.03;;;;;17.60;101016.00;;;;10459492;28;20242;-78
2022/07/26 03:47:49;;;;;;;17.93;4.93;;;;;17.60;101024.00;;;;10491858;28;20189;-78
2022/07/26 03:52:51;;;;;;;15.77;4.30;;;;;17.60;101026.00;;;;10473977;28;20271;-79
2022/07/26 03:57:53;;;;;;;18.42;4.05;;;;;17.60;101028.00;;;;10496359;28;20229;-79
2022/07/26 04:02:55;;;;;;;14.30;4.43;;;;;17.60;101028.00;;;;10433063;28;20217;-78
2022/07/26 04:07:57;;;;;;;20.73;4.35;;;;;17.70;101032.00;;;;10465591;28;20189;-78
2022/07/26 04:13:00;;;;;;;12.98;4.18;;;;;17.70;101045.00;;;;10444623;28;20201;-79
2022/07/26 04:18:02;;;;;;;17.17;4.32;;;;;17.70;101054.00;;;;10449019;28;20218;-79
2022/07/26 04:23:04;;;;;;;13.20;3.85;;;;;17.80;101051.00;;;;10433190;28;20641;-78
2022/07/26 04:28:13;;;;;;;14.80;4.93;;;;;17.80;101052.00;;;;10473386;28;20201;-78
2022/07/26 04:33:15;;;;;;;15.10;3.60;;;;;17.80;101057.00;;;;10468520;28;20186;-78
2022/07/26 04:38:17;;;;;;;11.98;4.00;;;;;17.80;101055.00;;;;10458041;28;20245;-78
2022/07/26 04:43:19;;;;;;;14.88;4.15;;;;;17.80;101059.00;;;;10464457;28;20189;-78
2022/07/26 04:48:21;;;;;;;17.15;5.32;;;;;17.70;101052.00;;;;10456347;28;20197;-78
2022/07/26 04:53:23;;;;;;;14.35;5.25;;;;;17.70;101056.00;;;;10471754;28;20236;-78
2022/07/26 04:58:25;;;;;;;20.15;4.45;;;;;17.60;101070.00;;;;10463422;28;20208;-78
2022/07/26 05:03:28;;;;;;;13.18;4.70;;;;;17.60;101067.00;;;;10493139;28;20303;-78
2022/07/26 05:08:30;;;;;;;16.87;4.10;;;;;17.60;101060.00;;;;10467318;28;20182;-78
2022/07/26 05:13:32;;;;;;;18.27;5.18;;;;;17.70;101074.00;;;;10493369;28;20202;-78
2022/07/26 05:18:33;;;;;;;16.30;4.47;;;;;17.80;101072.00;;;;10446755;28;20221;-79
2022/07/26 05:23:50;;;;;;;16.92;4.30;;;;;17.80;101078.00;;;;10456026;28;20192;-78
2022/07/26 05:28:53;;;;;;;13.20;4.40;;;;;17.80;101080.00;;;;10471419;28;20201;-78
2022/07/26 05:33:55;;;;;;;18.67;4.90;;;;;17.80;101083.00;;;;10482837;28;20193;-78
2022/07/26 05:38:57;;;;;;;20.02;4.55;;;;;18.00;101091.00;;;;10463102;28;20189;-78
2022/07/26 05:43:59;;;;;;;19.23;4.85;;;;;18.30;101079.00;;;;10487700;28;20197;-79
2022/07/26 05:49:01;;;;;;;15.00;5.07;;;;;18.60;101086.00;;;;10476646;28;20200;-78
2022/07/26 05:54:03;;;;;;;15.88;4.68;;;;;19.50;101091.00;;;;10442736;28;20204;-78
2022/07/26 05:59:06;;;;;;;13.07;3.88;;;;;20.30;101091.00;;;;10439103;28;20198;-78
2022/07/26 06:04:09;;;;;;;14.13;4.10;;;;;21.00;101101.00;;;;10471977;28;20358;-79
2022/07/26 06:09:11;;;;;;;14.40;4.28;;;;;21.60;101095.00;;;;10448234;28;20205;-78
2022/07/26 06:14:13;;;;;;;5.53;3.20;;;;;22.00;101106.00;;;;10470075;28;20230;-79
2022/07/26 06:19:16;;;;;;;13.18;3.13;;;;;23.10;101114.00;;;;10478570;28;20227;-78
2022/07/26 06:24:18;;;;;;;12.75;3.30;;;;;24.40;101121.00;;;;10490531;28;20189;-79
2022/07/26 06:29:20;;;;;;;9.82;3.00;;;;;23.60;101122.00;;;;10459423;28;20202;-78
2022/07/26 06:34:23;;;;;;;6.47;2.47;;;;;22.60;101127.00;;;;10475850;28;20205;-79
2022/07/26 06:39:25;;;;;;;10.85;2.85;;;;;22.30;101125.00;;;;10452888;28;20194;-78
2022/07/26 06:44:27;;;;;;;10.02;3.20;;;;;22.30;101133.00;;;;10468654;28;20567;-79
2022/07/26 06:49:29;;;;;;;6.32;2.40;;;;;22.40;101136.00;;;;10524044;28;20200;-79
2022/07/26 06:54:31;;;;;;;7.50;2.28;;;;;22.40;101142.00;;;;10460500;28;20274;-78
2022/07/26 06:59:34;;;;;;;11.90;3.00;;;;;21.80;101141.00;;;;10484559;28;20194;-79
2022/07/26 07:04:35;;;;;;;11.32;3.03;;;;;21.30;101150.00;;;;10457404;28;20196;-79
2022/07/26 07:09:38;;;;;;;9.07;2.45;;;;;20.90;101144.00;;;;10452591;28;20216;-79
2022/07/26 07:14:40;;;;;;;6.75;2.35;;;;;20.70;101160.00;;;;10524209;28;20197;-78
2022/07/26 07:19:42;;;;;;;8.18;3.05;;;;;20.70;101160.00;;;;10492827;28;20197;-78
2022/07/26 07:24:44;;;;;;;9.57;2.90;;;;;20.70;101165.00;;;;10466513;28;20243;-78
2022/07/26 07:29:47;;;;;;;11.65;2.88;;;;;20.80;101163.00;;;;10458387;28;20208;-78
2022/07/26 07:34:49;;;;;;;7.57;2.80;;;;;21.00;101167.00;;;;10485965;28;20208;-77
2022/07/26 07:39:51;;;;;;;11.90;2.63;;;;;21.00;101168.00;;;;10507292;28;20206;-78
2022/07/26 07:44:54;;;;;;;7.00;2.80;;;;;21.30;101168.00;;;;10469006;28;20194;-78
2022/07/26 07:49:56;;;;;;;8.50;2.92;;;;;21.30;101184.00;;;;10492959;28;20200;-77
2022/07/26 07:54:59;;;;;;;10.00;2.50;;;;;21.10;101183.00;;;;10477963;28;20209;-77
2022/07/26 08:00:21;;;;;;;10.82;2.35;;;;;21.10;101188.00;;;;10497285;28;20213;-77
2022/07/26 08:05:34;;;;;;;7.95;2.70;;;;;20.90;101185.00;;;;10499109;28;20211;-77
2022/07/26 08:10:41;;;;;;;8.20;2.30;;;;;21.10;101182.00;;;;10483314;28;20217;-78
2022/07/26 08:15:53;;;;;;;6.63;2.17;;;;;21.50;101186.00;;;;10497460;28;20240;-78
2022/07/26 08:20:56;;;;;;;7.10;2.15;;;;;22.20;101183.00;;;;10473178;28;20219;-78
2022/07/26 08:25:59;;;;;;;11.30;2.63;;;;;22.70;101180.00;;;;10488768;28;20223;-78
2022/07/26 08:31:07;;;;;;;9.55;1.92;;;;;23.10;101194.00;;;;10475830;28;20548;-78
2022/07/26 08:36:11;;;;;;;3.85;1.85;;;;;23.00;101186.00;;;;10474687;28;20287;-77
2022/07/26 08:41:13;;;;;;;7.20;2.10;;;;;22.80;101195.00;;;;10505389;28;20213;-77
2022/07/26 08:46:15;;;;;;;6.07;2.47;;;;;22.80;101197.00;;;;10493501;28;20193;-78
2022/07/26 08:51:21;;;;;;;7.97;2.22;;;;;23.30;101198.00;;;;10452771;28;20189;-79
2022/07/26 08:56:23;;;;;;;4.80;1.75;;;;;24.20;101203.00;;;;10485808;28;20263;-79
2022/07/26 09:01:25;;;;;;;5.68;2.30;;;;;24.20;101210.00;;;;10487577;28;20308;-79
2022/07/26 09:06:28;;;;;;;5.97;2.13;;;;;24.70;101197.00;;;;10491899;28;20204;-78
2022/07/26 09:11:31;;;;;;;5.72;2.22;;;;;25.10;101209.00;;;;10493831;28;20201;-78
2022/07/26 09:16:33;;;;;;;6.47;2.05;;;;;25.60;101207.00;;;;10473501;28;20214;-79
2022/07/26 09:21:41;;;;;;;6.75;1.85;;;;;26.10;101223.00;;;;10526296;28;20173;-78
2022/07/26 09:26:55;;;;;;;4.82;1.80;;;;;26.50;101210.00;;;;10470322;28;20585;-79
2022/07/26 09:32:17;;;;;;;7.18;1.77;;;;;24.90;101214.00;;;;10482935;28;20201;-79
2022/07/26 09:37:42;;;;;;;4.75;1.55;;;;;26.00;101217.00;;;;10484222;28;20208;-79
2022/07/26 09:43:02;;;;;;;5.60;1.52;;;;;27.80;101214.00;;;;10486625;28;20227;-79
2022/07/26 09:48:05;;;;;;;7.18;1.50;;;;;28.40;101203.00;;;;10439010;28;20190;-79
2022/07/26 09:53:09;;;;;;;3.03;1.42;;;;;27.70;101213.00;;;;10458487;28;20189;-80
2022/07/26 09:58:12;;;;;;;6.32;1.67;;;;;30.10;101206.00;;;;10496392;28;20197;-78
2022/07/26 10:03:15;;;;;;;8.18;1.77;;;;;30.00;101216.00;;;;10496481;28;20646;-79
2022/07/26 10:08:18;;;;;;;6.40;1.73;;;;;31.80;101206.00;;;;10509698;28;21773;-79
2022/07/26 10:13:21;;;;;;;3.60;1.30;;;;;30.50;101219.00;;;;10481686;28;20246;-80
2022/07/26 10:18:36;;;;;;;6.78;1.65;;;;;29.30;101210.00;;;;10501121;28;20208;-79
2022/07/26 10:23:45;;;;;;;6.80;1.70;;;;;27.80;101221.00;;;;10499145;28;20197;-79
2022/07/26 10:28:47;;;;;;;2.65;1.50;;;;;28.60;101217.00;;;;10497616;28;20224;-79
2022/07/26 10:33:50;;;;;;;4.47;1.30;;;;;28.60;101214.00;;;;10511129;28;20186;-79
2022/07/26 10:39:13;;;;;;;3.97;1.55;;;;;27.60;101220.00;;;;10467624;28;20197;-79
2022/07/26 10:44:18;;;;;;;3.28;1.25;;;;;26.80;101227.00;;;;10471148;28;20200;-79
2022/07/26 10:49:49;;;;;;;2.95;1.30;;;;;26.10;101229.00;;;;10489008;28;20193;-78
2022/07/26 10:54:55;;;;;;;3.83;1.58;;;;;25.60;101233.00;;;;10460334;28;20209;-79
2022/07/26 10:59:58;;;;;;;2.67;1.45;;;;;24.70;101232.00;;;;10441831;28;20216;-77
2022/07/26 11:05:03;;;;;;;3.22;1.30;;;;;25.00;101228.00;;;;10492187;28;20189;-79
2022/07/26 11:10:05;;;;;;;2.55;1.40;;;;;25.20;101232.00;;;;10482775;28;20198;-77
2022/07/26 11:15:18;;;;;;;2.60;1.50;;;;;25.70;101235.00;;;;10482119;28;20255;-77
2022/07/26 11:20:26;;;;;;;1.95;1.42;;;;;25.40;101243.00;;;;10491134;28;20201;-78
2022/07/26 11:25:31;;;;;;;2.10;1.90;;;;;25.50;101251.00;;;;10494680;28;20181;-77
2022/07/26 11:30:33;;;;;;;1.00;0.82;;;;;25.90;101248.00;;;;10495536;28;20197;-78
2022/07/26 11:35:35;;;;;;;1.17;0.73;;;;;26.90;101250.00;;;;10480926;28;20208;-77
2022/07/26 11:40:45;;;;;;;1.40;0.95;;;;;27.80;101242.00;;;;10463406;28;20216;-77
2022/07/26 11:45:51;;;;;;;3.00;0.80;;;;;27.60;101234.00;;;;10497565;28;20173;-77
2022/07/26 11:51:14;;;;;;;2.65;1.00;;;;;27.80;101245.00;;;;10494511;28;20193;-78
2022/07/26 11:56:22;;;;;;;1.17;0.57;;;;;27.80;101244.00;;;;10489182;28;20201;-78
2022/07/26 12:01:25;;;;;;;0.60;0.60;;;;;26.80;101256.00;;;;10497424;28;20214;-77
2022/07/26 12:06:27;;;;;;;0.80;0.52;;;;;26.60;101258.00;;;;10482760;28;20709;-78
2022/07/26 12:11:40;;;;;;;0.73;0.50;;;;;25.90;101263.00;;;;10506387;28;20189;-78
2022/07/26 12:16:46;;;;;;;0.55;0.55;;;;;25.50;101261.00;;;;10501127;28;20204;-78
2022/07/26 12:21:51;;;;;;;4.60;0.98;;;;;25.80;101266.00;;;;10486396;28;20192;-79
2022/07/26 12:27:20;;;;;;;0.60;0.60;;;;;25.20;101260.00;;;;10485349;28;20200;-78
2022/07/26 12:32:30;;;;;;;0.63;0.63;;;;;24.90;101259.00;;;;10470367;28;20559;-78
2022/07/26 12:37:35;;;;;;;2.85;1.00;;;;;25.20;101269.00;;;;10499757;28;20250;-78
2022/07/26 12:43:41;;;;;;;0.93;0.80;;;;;25.20;101262.00;;;;10501528;28;20957;-77
2022/07/26 12:48:49;;;;;;;1.05;0.73;;;;;24.90;101278.00;;;;10451395;28;20285;-78
2022/07/26 12:53:55;;;;;;;1.80;0.50;;;;;24.90;101276.00;;;;10496332;28;20280;-78
2022/07/26 12:59:00;;;;;;;3.03;0.90;;;;;24.40;101284.00;;;;10519553;28;20227;-78
2022/07/26 13:04:03;;;;;;;1.85;0.80;;;;;24.70;101272.00;;;;10501325;28;20217;-78
2022/07/26 13:09:05;;;;;;;1.02;0.73;;;;;24.80;101289.00;;;;10498473;28;20193;-78
2022/07/26 13:14:07;;;;;;;1.67;0.80;;;;;24.50;101277.00;;;;10519737;28;20185;-78
2022/07/26 13:19:10;;;;;;;1.63;0.98;;;;;24.50;101287.00;;;;10482791;28;20209;-79
2022/07/26 13:24:12;;;;;;;2.05;1.10;;;;;24.60;101279.00;;;;10470037;28;20635;-78
2022/07/26 13:29:18;;;;;;;1.70;0.60;;;;;24.50;101283.00;;;;10469463;28;20881;-78
2022/07/26 13:34:21;;;;;;;1.02;0.65;;;;;24.40;101290.00;;;;10486583;28;20193;-79
2022/07/26 13:39:24;;;;;;;2.45;0.90;;;;;24.30;101298.00;;;;10475952;28;20223;-77
2022/07/26 13:44:32;;;;;;;1.20;0.80;;;;;24.20;101289.00;;;;10496505;28;20265;-77
2022/07/26 13:49:34;;;;;;;1.33;0.90;;;;;24.70;101301.00;;;;10490272;28;20189;-77
2022/07/26 13:54:36;;;;;;;1.95;0.77;;;;;24.40;101299.00;;;;10491962;28;20258;-76
2022/07/26 13:59:38;;;;;;;2.67;1.63;;;;;23.80;101313.00;;;;10513891;28;20652;-77
2022/07/26 14:04:41;;;;;;;1.60;1.50;;;;;23.60;101314.00;;;;10477857;28;20928;-77
2022/07/26 14:09:43;;;;;;;4.35;1.15;;;;;23.80;101306.00;;;;10513670;28;20193;-77
2022/07/26 14:14:46;;;;;;;1.75;1.08;;;;;23.50;101316.00;;;;10458248;28;20219;-78
2022/07/26 14:19:49;;;;;;;1.88;1.15;;;;;23.50;101326.00;;;;10488347;28;20245;-78
2022/07/26 14:24:51;;;;;;;2.00;1.15;;;;;23.40;101323.00;;;;10470479;28;20193;-77
2022/07/26 14:29:53;;;;;;;5.20;1.63;;;;;23.10;101325.00;;;;10470209;28;20296;-77
2022/07/26 14:34:55;;;;;;;2.08;0.90;;;;;24.30;101323.00;;;;10462083;28;20627;-76
2022/07/26 14:39:57;;;;;;;3.50;1.45;;;;;24.70;101326.00;;;;10469549;28;20211;-77
2022/07/26 14:45:00;;;;;;;4.57;1.40;;;;;24.00;101330.00;;;;10499762;28;20605;-77
2022/07/26 14:50:02;;;;;;;4.25;1.48;;;;;24.20;101327.00;;;;10489014;28;20205;-77
2022/07/26 14:55:08;;;;;;;3.13;1.30;;;;;24.90;101341.00;;;;10468345;28;20220;-77
2022/07/26 15:00:16;;;;;;;2.88;1.33;;;;;24.80;101346.00;;;;10512915;28;20282;-77
2022/07/26 15:05:18;;;;;;;4.28;1.20;;;;;24.70;101338.00;;;;10477112;28;20193;-76
2022/07/26 15:10:37;;;;;;;4.03;1.30;;;;;24.80;101343.00;;;;10484405;28;20193;-77
2022/07/26 15:15:40;;;;;;;5.28;1.58;;;;;23.70;101340.00;;;;10481415;28;20224;-77
2022/07/26 15:20:42;;;;;;;5.65;1.85;;;;;23.50;101340.00;;;;10470235;28;20266;-76
2022/07/26 15:25:47;;;;;;;5.80;1.92;;;;;23.00;101342.00;;;;10488323;28;20205;-77
2022/07/26 15:30:50;;;;;;;3.97;1.25;;;;;22.60;101334.00;;;;10505078;28;20200;-77
2022/07/26 15:35:54;;;;;;;4.65;2.03;;;;;23.00;101333.00;;;;10465663;28;20603;-78
2022/07/26 15:40:56;;;;;;;5.03;2.20;;;;;22.90;101326.00;;;;10451824;28;20223;-77
2022/07/26 15:45:58;;;;;;;3.00;1.90;;;;;24.00;101325.00;;;;10484039;28;20192;-77
2022/07/26 15:51:00;;;;;;;4.28;2.20;;;;;23.80;101318.00;;;;10471944;28;20211;-77
2022/07/26 15:56:03;;;;;;;3.50;1.65;;;;;25.10;101316.00;;;;10485842;28;20630;-77
2022/07/26 16:01:05;;;;;;;3.65;1.60;;;;;25.40;101323.00;;;;10452983;28;20217;-78
2022/07/26 16:06:07;;;;;;;4.38;1.35;;;;;24.10;101317.00;;;;10450960;28;20722;-78
2022/07/26 16:11:09;;;;;;;3.55;1.10;;;;;23.40;101315.00;;;;10464655;28;20238;-78
2022/07/26 16:16:12;;;;;;;5.18;1.42;;;;;23.00;101315.00;;;;10478325;28;20213;-78
2022/07/26 16:21:14;;;;;;;5.53;1.42;;;;;23.00;101331.00;;;;10448660;28;20269;-77
2022/07/26 16:26:16;;;;;;;6.97;1.80;;;;;23.50;101323.00;;;;10511963;28;20193;-77
2022/07/26 16:31:19;;;;;;;5.63;1.77;;;;;23.40;101332.00;;;;10485453;28;20186;-77
2022/07/26 16:36:21;;;;;;;3.92;1.23;;;;;22.70;101340.00;;;;10456099;28;20225;-78
2022/07/26 16:41:23;;;;;;;4.80;1.20;;;;;22.20;101338.00;;;;10453862;28;20201;-77
2022/07/26 16:46:26;;;;;;;4.10;1.85;;;;;22.00;101348.00;;;;10480520;28;20181;-77
2022/07/26 16:51:28;;;;;;;5.72;1.52;;;;;21.60;101348.00;;;;10484192;28;20197;-77
2022/07/26 16:56:31;;;;;;;5.93;2.00;;;;;21.50;101351.00;;;;10467296;28;20205;-77
2022/07/26 17:01:33;;;;;;;5.50;2.17;;;;;21.40;101348.00;;;;10451381;28;20308;-77
2022/07/26 17:06:35;;;;;;;4.88;1.92;;;;;21.30;101347.00;;;;10497063;28;20192;-78
2022/07/26 17:11:41;;;;;;;6.97;2.08;;;;;21.50;101338.00;;;;10482301;28;20189;-78
2022/07/26 17:16:43;;;;;;;4.57;1.88;;;;;21.90;101332.00;;;;10498963;28;20212;-77
2022/07/26 17:21:46;;;;;;;5.90;1.83;;;;;22.00;101335.00;;;;10450908;28;20197;-77
2022/07/26 17:26:48;;;;;;;7.07;1.83;;;;;21.70;101342.00;;;;10455004;28;20254;-77
2022/07/26 17:31:50;;;;;;;3.00;1.58;;;;;21.80;101327.00;;;;10452250;28;20201;-78
2022/07/26 17:37:00;;;;;;;3.92;1.40;;;;;21.70;101335.00;;;;10474523;28;20671;-78
2022/07/26 17:42:05;;;;;;;7.95;1.75;;;;;21.10;101338.00;;;;10478052;28;20287;-78
2022/07/26 17:47:07;;;;;;;6.97;1.50;;;;;20.90;101339.00;;;;10491681;28;20185;-78
2022/07/26 17:52:29;;;;;;;8.18;1.58;;;;;20.80;101344.00;;;;10477071;28;20185;-78
2022/07/26 17:57:31;;;;;;;8.18;2.28;;;;;20.70;101351.00;;;;10450726;28;20208;-77
2022/07/26 18:02:33;;;;;;;4.55;1.67;;;;;20.70;101349.00;;;;10459073;28;20213;-78
2022/07/26 18:07:36;;;;;;;6.28;1.98;;;;;20.60;101339.00;;;;10487053;28;20190;-77
2022/07/26 18:12:38;;;;;;;6.65;2.10;;;;;20.30;101341.00;;;;10460368;28;20246;-78
2022/07/26 18:17:40;;;;;;;6.15;1.88;;;;;20.00;101356.00;;;;10459685;28;20254;-78
2022/07/26 18:22:42;;;;;;;6.32;1.70;;;;;20.00;101362.00;;;;10490252;28;20193;-78
2022/07/26 18:27:52;;;;;;;5.78;1.65;;;;;20.00;101352.00;;;;10475025;28;20672;-78
2022/07/26 18:32:55;;;;;;;9.07;2.58;;;;;19.90;101358.00;;;;10497300;28;20220;-77
2022/07/26 18:37:57;;;;;;;3.22;1.40;;;;;19.80;101355.00;;;;10451117;28;20208;-77
2022/07/26 18:42:59;;;;;;;6.80;1.75;;;;;19.60;101352.00;;;;10482166;28;20319;-77
2022/07/26 18:48:02;;;;;;;3.38;1.42;;;;;19.40;101357.00;;;;10492647;28;20192;-76
2022/07/26 18:53:04;;;;;;;4.47;2.13;;;;;19.30;101365.00;;;;10500250;28;20539;-77
2022/07/26 18:58:06;;;;;;;5.53;2.10;;;;;19.20;101370.00;;;;10518521;28;20213;-77
2022/07/26 19:03:09;;;;;;;5.45;1.48;;;;;19.10;101373.00;;;;10510064;28;20295;-77
2022/07/26 19:08:11;;;;;;;5.80;1.70;;;;;19.00;101368.00;;;;10496144;28;20200;-77
2022/07/26 19:13:13;;;;;;;6.03;2.13;;;;;18.90;101370.00;;;;10449047;28;20653;-77
2022/07/26 19:18:15;;;;;;;3.92;1.73;;;;;18.90;101369.00;;;;10465300;28;20210;-77
2022/07/26 19:23:17;;;;;;;9.95;2.03;;;;;18.80;101370.00;;;;10481339;28;20190;-77
2022/07/26 19:28:19;;;;;;;6.47;1.52;;;;;18.70;101387.00;;;;10475433;28;20220;-77
2022/07/26 19:33:21;;;;;;;4.88;1.58;;;;;18.70;101397.00;;;;10480590;28;20284;-76
2022/07/26 19:38:24;;;;;;;3.58;1.77;;;;;18.60;101405.00;;;;10510403;28;20258;-77
2022/07/26 19:43:27;;;;;;;3.22;1.33;;;;;18.60;101405.00;;;;10495702;28;20197;-77
2022/07/26 19:48:29;;;;;;;6.15;1.20;;;;;18.50;101411.00;;;;10472737;28;20631;-77
2022/07/26 19:53:31;;;;;;;5.75;1.58;;;;;18.40;101410.00;;;;10503161;28;20659;-77
2022/07/26 19:58:33;;;;;;;3.85;1.20;;;;;18.40;101414.00;;;;10470156;28;20216;-77
2022/07/26 20:03:38;;;;;;;4.60;1.63;;;;;18.40;101427.00;;;;10484405;28;20239;-77
2022/07/26 20:08:40;;;;;;;5.38;1.45;;;;;18.40;101432.00;;;;10518740;28;20185;-77
2022/07/26 20:13:43;;;;;;;7.43;1.42;;;;;18.30;101439.00;;;;10487702;28;20197;-77
2022/07/26 20:18:45;;;;;;;9.15;1.42;;;;;18.30;101448.00;;;;10506118;28;20220;-77
2022/07/26 20:23:47;;;;;;;4.70;1.55;;;;;18.20;101451.00;;;;10503294;28;20177;-77
2022/07/26 20:28:50;;;;;;;6.40;1.67;;;;;18.20;101454.00;;;;10487847;28;20717;-78
2022/07/26 20:33:52;;;;;;;8.07;1.60;;;;;18.00;101457.00;;;;10500603;28;20292;-77
2022/07/26 20:38:54;;;;;;;5.18;1.48;;;;;18.00;101458.00;;;;10523353;28;20236;-79
2022/07/26 20:43:56;;;;;;;5.05;1.38;;;;;17.90;101462.00;;;;10497968;28;20192;-77
2022/07/26 20:49:00;;;;;;;2.67;1.25;;;;;17.80;101463.00;;;;10471202;28;20184;-78
2022/07/26 20:54:02;;;;;;;3.60;1.33;;;;;17.80;101464.00;;;;10483221;28;20276;-77
2022/07/26 20:59:05;;;;;;;5.40;1.48;;;;;17.70;101480.00;;;;10499408;28;20200;-77
2022/07/26 21:04:07;;;;;;;5.13;1.38;;;;;17.70;101479.00;;;;10492028;28;20205;-77
2022/07/26 21:09:09;;;;;;;4.80;1.27;;;;;17.60;101481.00;;;;10463558;28;20311;-77
2022/07/26 21:14:12;;;;;;;2.27;1.10;;;;;17.50;101490.00;;;;10468898;28;20671;-77
2022/07/26 21:19:14;;;;;;;5.03;1.48;;;;;17.50;101489.00;;;;10501611;28;20200;-77
2022/07/26 21:24:16;;;;;;;3.85;1.27;;;;;17.40;101496.00;;;;10504869;28;20188;-77
2022/07/26 21:29:18;;;;;;;6.22;1.63;;;;;17.30;101490.00;;;;10469605;28;20196;-77
2022/07/26 21:34:21;;;;;;;4.43;1.15;;;;;17.20;101500.00;;;;10480444;28;20188;-77
2022/07/26 21:39:23;;;;;;;2.17;1.10;;;;;17.10;101497.00;;;;10481188;28;20212;-77
2022/07/26 21:44:25;;;;;;;2.70;1.13;;;;;17.00;101500.00;;;;10499397;28;20712;-77
2022/07/26 21:49:29;;;;;;;4.60;1.27;;;;;16.90;101499.00;;;;10471464;28;20181;-77
2022/07/26 21:54:32;;;;;;;2.27;1.20;;;;;16.80;101493.00;;;;10479432;28;20200;-77
2022/07/26 21:59:34;;;;;;;4.60;1.40;;;;;16.70;101502.00;;;;10495105;28;20197;-77
2022/07/26 22:04:36;;;;;;;4.90;1.83;;;;;16.60;101492.00;;;;10524153;28;20216;-77
2022/07/26 22:09:39;;;;;;;6.55;1.50;;;;;16.50;101501.00;;;;10484322;28;20185;-76
2022/07/26 22:14:40;;;;;;;2.33;1.20;;;;;16.30;101497.00;;;;10489123;28;20192;-77
2022/07/26 22:19:42;;;;;;;6.73;1.53;;;;;16.10;101507.00;;;;10451960;28;20209;-77
2022/07/26 22:24:45;;;;;;;3.60;1.73;;;;;16.00;101514.00;;;;10491372;28;20198;-77
2022/07/26 22:29:46;;;;;;;1.73;1.10;;;;;15.80;101510.00;;;;10477829;28;20597;-77
2022/07/26 22:34:50;;;;;;;5.13;1.10;;;;;15.70;101506.00;;;;10489371;28;20652;-77
2022/07/26 22:39:51;;;;;;;2.97;1.00;;;;;15.60;101505.00;;;;10474791;28;20232;-77
2022/07/26 22:44:53;;;;;;;7.17;1.30;;;;;15.50;101512.00;;;;10507225;28;20838;-77
2022/07/26 22:49:55;;;;;;;3.23;1.20;;;;;15.40;101509.00;;;;10532026;28;20189;-78
2022/07/26 22:54:57;;;;;;;3.70;1.10;;;;;15.30;101509.00;;;;10509011;28;20201;-77
2022/07/26 23:00:00;;;;;;;6.20;1.30;;;;;15.20;101511.00;;;;10464046;28;20209;-77
2022/07/26 23:05:02;;;;;;;4.30;1.13;;;;;15.10;101514.00;;;;10470349;28;20201;-77
2022/07/26 23:10:08;;;;;;;2.87;1.37;;;;;15.00;101516.00;;;;10470812;28;20193;-77
2022/07/26 23:15:11;;;;;;;6.47;1.30;;;;;14.90;101517.00;;;;10510239;28;20212;-77
2022/07/26 23:20:13;;;;;;;5.80;1.40;;;;;14.80;101520.00;;;;10508709;28;20197;-77
2022/07/26 23:25:15;;;;;;;5.67;1.40;;;;;14.70;101517.00;;;;10509099;28;20197;-77
2022/07/26 23:30:17;;;;;;;2.37;1.10;;;;;14.60;101516.00;;;;10486981;28;20237;-77
2022/07/26 23:35:20;;;;;;;5.33;1.23;;;;;14.50;101517.00;;;;10469969;28;20244;-77
2022/07/26 23:40:23;;;;;;;5.50;1.20;;;;;14.40;101519.00;;;;10483750;28;20213;-77
2022/07/26 23:45:25;;;;;;;9.13;1.50;;;;;14.30;101526.00;;;;10476646;28;20193;-77
2022/07/26 23:50:27;;;;;;;4.57;1.47;;;;;14.30;101521.00;;;;10489398;28;20188;-77
2022/07/26 23:55:29;;;;;;;7.03;1.43;;;;;14.20;101527.00;;;;10446428;28;20619;-77
